sensor_id;sensor_type;location;lat;lon;timestamp;temperature;humidity
13835;DHT22;6988;52.614;13.500;2022-09-09T00:00:22;15.50;99.90
13835;DHT22;6988;52.614;13.500;2022-09-09T00:05:19;15.50;99.90
13835;DHT22;6988;52.614;13.500;2022-09-09T00:10:23;15.50;99.90
13835;DHT22;6988;52.614;13.500;2022-09-09T00:15:22;15.40;99.90
13835;DHT22;6988;52.614;13.500;2022-09-09T00:20:23;15.40;99.90
13835;DHT22;6988;52.614;13.500;2022-09-09T00:25:28;15.30;99.90
13835;DHT22;6988;52.614;13.500;2022-09-09T00:30:28;15.30;99.90
13835;DHT22;6988;52.614;13.500;2022-09-09T00:35:28;15.30;99.90
13835;DHT22;6988;52.614;13.500;2022-09-09T00:40:26;15.20;99.90
13835;DHT22;6988;52.614;13.500;2022-09-09T00:45:37;15.30;99.90
13835;DHT22;6988;52.614;13.500;2022-09-09T00:50:49;15.20;99.90
13835;DHT22;6988;52.614;13.500;2022-09-09T00:55:59;15.10;99.90
13835;DHT22;6988;52.614;13.500;2022-09-09T01:01:04;15.00;99.90
13835;DHT22;6988;52.614;13.500;2022-09-09T01:06:13;14.90;99.90
13835;DHT22;6988;52.614;13.500;2022-09-09T01:11:12;14.90;99.90
13835;DHT22;6988;52.614;13.500;2022-09-09T01:16:13;14.80;99.90
13835;DHT22;6988;52.614;13.500;2022-09-09T01:21:13;14.80;99.90
13835;DHT22;6988;52.614;13.500;2022-09-09T01:26:18;14.70;99.90
13835;DHT22;6988;52.614;13.500;2022-09-09T01:31:18;14.70;99.90
13835;DHT22;6988;52.614;13.500;2022-09-09T01:36:18;14.60;99.90
13835;DHT22;6988;52.614;13.500;2022-09-09T01:41:18;14.50;99.90
13835;DHT22;6988;52.614;13.500;2022-09-09T01:46:16;14.50;99.90
13835;DHT22;6988;52.614;13.500;2022-09-09T01:51:12;14.40;99.90
13835;DHT22;6988;52.614;13.500;2022-09-09T01:56:18;14.40;99.90
13835;DHT22;6988;52.614;13.500;2022-09-09T02:01:30;14.30;99.90
13835;DHT22;6988;52.614;13.500;2022-09-09T02:06:35;14.30;99.90
13835;DHT22;6988;52.614;13.500;2022-09-09T02:11:43;14.20;99.90
13835;DHT22;6988;52.614;13.500;2022-09-09T02:16:49;14.10;99.90
13835;DHT22;6988;52.614;13.500;2022-09-09T02:21:53;14.10;99.90
13835;DHT22;6988;52.614;13.500;2022-09-09T02:26:53;14.00;99.90
13835;DHT22;6988;52.614;13.500;2022-09-09T02:31:49;14.00;99.90
13835;DHT22;6988;52.614;13.500;2022-09-09T02:36:49;14.00;99.90
13835;DHT22;6988;52.614;13.500;2022-09-09T02:41:45;13.90;99.90
13835;DHT22;6988;52.614;13.500;2022-09-09T02:52:14;13.90;99.90
13835;DHT22;6988;52.614;13.500;2022-09-09T02:57:11;13.80;99.90
13835;DHT22;6988;52.614;13.500;2022-09-09T03:02:11;13.80;99.90
13835;DHT22;6988;52.614;13.500;2022-09-09T03:07:05;13.80;99.90
13835;DHT22;6988;52.614;13.500;2022-09-09T03:11:57;13.70;99.90
13835;DHT22;6988;52.614;13.500;2022-09-09T03:16:52;13.70;99.90
13835;DHT22;6988;52.614;13.500;2022-09-09T03:22:03;13.70;99.90
13835;DHT22;6988;52.614;13.500;2022-09-09T03:26:58;13.60;99.90
13835;DHT22;6988;52.614;13.500;2022-09-09T03:31:50;13.60;99.90
13835;DHT22;6988;52.614;13.500;2022-09-09T03:36:42;13.60;99.90
13835;DHT22;6988;52.614;13.500;2022-09-09T03:41:36;13.60;99.90
13835;DHT22;6988;52.614;13.500;2022-09-09T03:46:28;13.50;99.90
13835;DHT22;6988;52.614;13.500;2022-09-09T03:51:21;13.50;99.90
13835;DHT22;6988;52.614;13.500;2022-09-09T03:56:13;13.40;99.90
13835;DHT22;6988;52.614;13.500;2022-09-09T04:01:09;13.40;99.90
13835;DHT22;6988;52.614;13.500;2022-09-09T04:06:06;13.20;99.90
13835;DHT22;6988;52.614;13.500;2022-09-09T04:11:00;13.30;99.90
13835;DHT22;6988;52.614;13.500;2022-09-09T04:15:58;13.30;99.90
13835;DHT22;6988;52.614;13.500;2022-09-09T04:20:52;13.30;99.90
13835;DHT22;6988;52.614;13.500;2022-09-09T04:25:49;13.30;99.90
13835;DHT22;6988;52.614;13.500;2022-09-09T04:30:44;13.30;99.90
13835;DHT22;6988;52.614;13.500;2022-09-09T04:35:38;13.30;99.90
13835;DHT22;6988;52.614;13.500;2022-09-09T04:40:32;13.20;99.90
13835;DHT22;6988;52.614;13.500;2022-09-09T04:45:25;13.20;99.90
13835;DHT22;6988;52.614;13.500;2022-09-09T04:50:17;13.20;99.90
13835;DHT22;6988;52.614;13.500;2022-09-09T04:55:11;13.20;99.90
13835;DHT22;6988;52.614;13.500;2022-09-09T05:00:09;13.20;99.90
13835;DHT22;6988;52.614;13.500;2022-09-09T05:05:04;13.10;99.90
13835;DHT22;6988;52.614;13.500;2022-09-09T05:09:58;13.20;99.90
13835;DHT22;6988;52.614;13.500;2022-09-09T05:14:50;13.30;99.90
13835;DHT22;6988;52.614;13.500;2022-09-09T05:19:43;13.30;99.90
13835;DHT22;6988;52.614;13.500;2022-09-09T05:24:35;13.40;99.90
13835;DHT22;6988;52.614;13.500;2022-09-09T05:29:28;13.50;99.90
13835;DHT22;6988;52.614;13.500;2022-09-09T05:34:21;13.60;99.90
13835;DHT22;6988;52.614;13.500;2022-09-09T05:39:15;13.60;99.90
13835;DHT22;6988;52.614;13.500;2022-09-09T05:44:07;13.70;99.90
13835;DHT22;6988;52.614;13.500;2022-09-09T05:49:03;13.80;99.90
13835;DHT22;6988;52.614;13.500;2022-09-09T05:53:57;14.20;99.90
13835;DHT22;6988;52.614;13.500;2022-09-09T05:58:53;14.30;99.90
13835;DHT22;6988;52.614;13.500;2022-09-09T06:03:48;14.40;99.90
13835;DHT22;6988;52.614;13.500;2022-09-09T06:08:42;14.50;99.90
13835;DHT22;6988;52.614;13.500;2022-09-09T06:13:38;14.60;99.90
13835;DHT22;6988;52.614;13.500;2022-09-09T06:18:32;14.80;99.90
13835;DHT22;6988;52.614;13.500;2022-09-09T06:23:25;14.90;99.90
13835;DHT22;6988;52.614;13.500;2022-09-09T06:28:18;15.00;99.90
13835;DHT22;6988;52.614;13.500;2022-09-09T06:33:10;15.10;99.90
13835;DHT22;6988;52.614;13.500;2022-09-09T06:38:03;15.30;99.90
13835;DHT22;6988;52.614;13.500;2022-09-09T06:42:59;15.50;99.90
13835;DHT22;6988;52.614;13.500;2022-09-09T06:47:59;15.90;99.90
13835;DHT22;6988;52.614;13.500;2022-09-09T06:52:53;16.10;99.90
13835;DHT22;6988;52.614;13.500;2022-09-09T06:57:47;16.20;99.90
13835;DHT22;6988;52.614;13.500;2022-09-09T07:02:44;16.60;99.90
13835;DHT22;6988;52.614;13.500;2022-09-09T07:07:37;16.60;99.90
13835;DHT22;6988;52.614;13.500;2022-09-09T07:12:30;16.60;99.90
13835;DHT22;6988;52.614;13.500;2022-09-09T07:17:25;17.00;99.90
13835;DHT22;6988;52.614;13.500;2022-09-09T07:22:19;17.60;99.90
13835;DHT22;6988;52.614;13.500;2022-09-09T07:27:11;18.10;99.90
13835;DHT22;6988;52.614;13.500;2022-09-09T07:32:04;18.40;99.90
13835;DHT22;6988;52.614;13.500;2022-09-09T07:37:02;18.70;99.90
13835;DHT22;6988;52.614;13.500;2022-09-09T07:41:56;19.20;99.90
13835;DHT22;6988;52.614;13.500;2022-09-09T07:46:49;19.60;99.90
13835;DHT22;6988;52.614;13.500;2022-09-09T07:51:46;19.60;99.90
13835;DHT22;6988;52.614;13.500;2022-09-09T07:56:42;20.00;99.90
13835;DHT22;6988;52.614;13.500;2022-09-09T08:01:36;20.00;99.90
13835;DHT22;6988;52.614;13.500;2022-09-09T08:06:34;20.30;99.90
13835;DHT22;6988;52.614;13.500;2022-09-09T08:11:33;20.80;99.90
13835;DHT22;6988;52.614;13.500;2022-09-09T08:16:30;20.90;99.90
13835;DHT22;6988;52.614;13.500;2022-09-09T08:21:27;21.00;99.90
13835;DHT22;6988;52.614;13.500;2022-09-09T08:26:23;21.50;99.90
13835;DHT22;6988;52.614;13.500;2022-09-09T08:31:19;21.60;99.90
13835;DHT22;6988;52.614;13.500;2022-09-09T08:36:15;21.70;99.90
13835;DHT22;6988;52.614;13.500;2022-09-09T08:41:45;21.80;99.90
13835;DHT22;6988;52.614;13.500;2022-09-09T08:46:58;21.70;99.90
13835;DHT22;6988;52.614;13.500;2022-09-09T08:51:58;22.10;99.90
13835;DHT22;6988;52.614;13.500;2022-09-09T08:56:50;21.90;99.90
13835;DHT22;6988;52.614;13.500;2022-09-09T09:01:49;21.70;99.90
13835;DHT22;6988;52.614;13.500;2022-09-09T09:07:03;21.10;99.90
13835;DHT22;6988;52.614;13.500;2022-09-09T09:12:14;20.90;99.90
13835;DHT22;6988;52.614;13.500;2022-09-09T09:17:12;20.60;99.90
13835;DHT22;6988;52.614;13.500;2022-09-09T09:22:16;20.40;99.90
13835;DHT22;6988;52.614;13.500;2022-09-09T09:27:13;20.10;99.90
13835;DHT22;6988;52.614;13.500;2022-09-09T09:32:17;20.40;99.90
13835;DHT22;6988;52.614;13.500;2022-09-09T09:37:17;20.70;99.90
13835;DHT22;6988;52.614;13.500;2022-09-09T09:42:19;21.10;99.90
13835;DHT22;6988;52.614;13.500;2022-09-09T09:47:15;21.70;99.90
13835;DHT22;6988;52.614;13.500;2022-09-09T09:52:17;22.60;99.90
13835;DHT22;6988;52.614;13.500;2022-09-09T09:57:15;22.60;99.90
13835;DHT22;6988;52.614;13.500;2022-09-09T10:02:15;23.20;99.90
13835;DHT22;6988;52.614;13.500;2022-09-09T10:07:11;23.10;99.90
13835;DHT22;6988;52.614;13.500;2022-09-09T10:12:11;23.00;99.90
13835;DHT22;6988;52.614;13.500;2022-09-09T10:17:19;23.60;99.90
13835;DHT22;6988;52.614;13.500;2022-09-09T10:22:25;24.40;99.90
13835;DHT22;6988;52.614;13.500;2022-09-09T10:27:25;24.90;99.90
13835;DHT22;6988;52.614;13.500;2022-09-09T10:32:37;24.50;99.90
13835;DHT22;6988;52.614;13.500;2022-09-09T10:37:44;24.50;99.90
13835;DHT22;6988;52.614;13.500;2022-09-09T10:42:50;25.10;99.90
13835;DHT22;6988;52.614;13.500;2022-09-09T10:48:03;24.90;99.90
13835;DHT22;6988;52.614;13.500;2022-09-09T10:53:10;25.40;99.90
13835;DHT22;6988;52.614;13.500;2022-09-09T10:58:14;25.10;99.90
13835;DHT22;6988;52.614;13.500;2022-09-09T11:03:17;25.40;99.90
13835;DHT22;6988;52.614;13.500;2022-09-09T11:08:17;25.70;99.90
13835;DHT22;6988;52.614;13.500;2022-09-09T11:13:15;25.00;99.90
13835;DHT22;6988;52.614;13.500;2022-09-09T11:18:18;24.90;99.90
13835;DHT22;6988;52.614;13.500;2022-09-09T11:23:15;25.60;99.90
13835;DHT22;6988;52.614;13.500;2022-09-09T11:28:28;26.00;99.90
13835;DHT22;6988;52.614;13.500;2022-09-09T11:33:55;26.30;99.90
13835;DHT22;6988;52.614;13.500;2022-09-09T11:38:59;25.40;99.90
13835;DHT22;6988;52.614;13.500;2022-09-09T11:44:10;24.70;99.90
13835;DHT22;6988;52.614;13.500;2022-09-09T11:49:06;24.60;99.90
13835;DHT22;6988;52.614;13.500;2022-09-09T11:54:28;24.20;99.90
13835;DHT22;6988;52.614;13.500;2022-09-09T11:59:23;23.80;99.90
13835;DHT22;6988;52.614;13.500;2022-09-09T12:04:32;23.90;99.90
13835;DHT22;6988;52.614;13.500;2022-09-09T12:09:43;24.70;99.90
13835;DHT22;6988;52.614;13.500;2022-09-09T12:14:53;25.50;99.90
13835;DHT22;6988;52.614;13.500;2022-09-09T12:19:47;25.80;99.90
13835;DHT22;6988;52.614;13.500;2022-09-09T12:24:43;25.50;99.90
13835;DHT22;6988;52.614;13.500;2022-09-09T12:29:47;25.50;99.90
13835;DHT22;6988;52.614;13.500;2022-09-09T12:34:47;25.00;99.90
13835;DHT22;6988;52.614;13.500;2022-09-09T12:39:47;24.40;99.90
13835;DHT22;6988;52.614;13.500;2022-09-09T12:44:52;23.90;99.90
13835;DHT22;6988;52.614;13.500;2022-09-09T12:49:47;24.00;99.90
13835;DHT22;6988;52.614;13.500;2022-09-09T12:54:44;24.30;99.90
13835;DHT22;6988;52.614;13.500;2022-09-09T12:59:40;24.10;99.90
13835;DHT22;6988;52.614;13.500;2022-09-09T13:04:36;24.10;99.90
13835;DHT22;6988;52.614;13.500;2022-09-09T13:09:28;24.30;99.90
13835;DHT22;6988;52.614;13.500;2022-09-09T13:14:26;24.40;99.90
13835;DHT22;6988;52.614;13.500;2022-09-09T13:19:22;24.50;99.90
13835;DHT22;6988;52.614;13.500;2022-09-09T13:24:27;24.40;99.90
13835;DHT22;6988;52.614;13.500;2022-09-09T13:29:21;24.30;99.90
13835;DHT22;6988;52.614;13.500;2022-09-09T13:34:22;24.20;99.90
13835;DHT22;6988;52.614;13.500;2022-09-09T13:39:18;24.00;99.90
13835;DHT22;6988;52.614;13.500;2022-09-09T13:44:21;23.90;99.90
13835;DHT22;6988;52.614;13.500;2022-09-09T13:49:21;23.70;99.90
13835;DHT22;6988;52.614;13.500;2022-09-09T13:54:15;23.60;99.90
13835;DHT22;6988;52.614;13.500;2022-09-09T13:59:11;23.50;99.90
13835;DHT22;6988;52.614;13.500;2022-09-09T14:04:05;23.80;99.90
13835;DHT22;6988;52.614;13.500;2022-09-09T14:08:58;24.10;99.90
13835;DHT22;6988;52.614;13.500;2022-09-09T14:13:50;24.30;99.90
13835;DHT22;6988;52.614;13.500;2022-09-09T14:18:42;24.40;99.90
13835;DHT22;6988;52.614;13.500;2022-09-09T14:23:36;24.20;99.90
13835;DHT22;6988;52.614;13.500;2022-09-09T14:28:28;24.20;99.90
13835;DHT22;6988;52.614;13.500;2022-09-09T14:33:20;24.20;99.90
13835;DHT22;6988;52.614;13.500;2022-09-09T14:38:12;24.50;99.90
13835;DHT22;6988;52.614;13.500;2022-09-09T14:43:05;24.50;99.90
13835;DHT22;6988;52.614;13.500;2022-09-09T14:47:57;24.40;99.90
13835;DHT22;6988;52.614;13.500;2022-09-09T14:52:49;24.30;99.90
13835;DHT22;6988;52.614;13.500;2022-09-09T14:57:41;24.00;99.90
13835;DHT22;6988;52.614;13.500;2022-09-09T15:02:37;23.70;99.90
13835;DHT22;6988;52.614;13.500;2022-09-09T15:07:29;23.80;99.90
13835;DHT22;6988;52.614;13.500;2022-09-09T15:12:22;23.60;99.90
13835;DHT22;6988;52.614;13.500;2022-09-09T15:17:14;23.60;99.90
13835;DHT22;6988;52.614;13.500;2022-09-09T15:22:07;23.40;99.90
13835;DHT22;6988;52.614;13.500;2022-09-09T15:26:59;23.40;99.90
13835;DHT22;6988;52.614;13.500;2022-09-09T15:31:53;23.30;99.90
13835;DHT22;6988;52.614;13.500;2022-09-09T15:36:45;23.20;99.90
13835;DHT22;6988;52.614;13.500;2022-09-09T15:41:39;23.10;99.90
13835;DHT22;6988;52.614;13.500;2022-09-09T15:46:34;23.10;99.90
13835;DHT22;6988;52.614;13.500;2022-09-09T15:51:27;23.10;99.90
13835;DHT22;6988;52.614;13.500;2022-09-09T15:56:19;22.90;99.90
13835;DHT22;6988;52.614;13.500;2022-09-09T16:01:12;22.80;99.90
13835;DHT22;6988;52.614;13.500;2022-09-09T16:06:04;22.40;99.90
13835;DHT22;6988;52.614;13.500;2022-09-09T16:10:58;22.20;99.90
13835;DHT22;6988;52.614;13.500;2022-09-09T16:15:56;22.20;99.90
13835;DHT22;6988;52.614;13.500;2022-09-09T16:20:54;22.10;99.90
13835;DHT22;6988;52.614;13.500;2022-09-09T16:25:53;22.10;99.90
13835;DHT22;6988;52.614;13.500;2022-09-09T16:30:46;21.90;99.90
13835;DHT22;6988;52.614;13.500;2022-09-09T16:35:37;21.70;99.90
13835;DHT22;6988;52.614;13.500;2022-09-09T16:40:33;21.50;99.90
13835;DHT22;6988;52.614;13.500;2022-09-09T16:45:26;21.50;99.90
13835;DHT22;6988;52.614;13.500;2022-09-09T16:50:18;21.40;99.90
13835;DHT22;6988;52.614;13.500;2022-09-09T16:55:10;21.40;99.90
13835;DHT22;6988;52.614;13.500;2022-09-09T17:00:04;21.40;99.90
13835;DHT22;6988;52.614;13.500;2022-09-09T17:04:57;21.30;99.90
13835;DHT22;6988;52.614;13.500;2022-09-09T17:09:49;21.20;99.90
13835;DHT22;6988;52.614;13.500;2022-09-09T17:14:42;21.10;99.90
13835;DHT22;6988;52.614;13.500;2022-09-09T17:19:37;20.90;99.90
13835;DHT22;6988;52.614;13.500;2022-09-09T17:24:29;21.00;99.90
13835;DHT22;6988;52.614;13.500;2022-09-09T17:29:21;20.80;99.90
13835;DHT22;6988;52.614;13.500;2022-09-09T17:34:13;20.60;99.90
13835;DHT22;6988;52.614;13.500;2022-09-09T17:39:06;20.40;99.90
13835;DHT22;6988;52.614;13.500;2022-09-09T17:43:59;20.20;99.90
13835;DHT22;6988;52.614;13.500;2022-09-09T17:48:52;20.00;99.90
13835;DHT22;6988;52.614;13.500;2022-09-09T17:53:48;19.70;99.90
13835;DHT22;6988;52.614;13.500;2022-09-09T17:58:43;19.50;99.90
13835;DHT22;6988;52.614;13.500;2022-09-09T18:03:36;19.40;99.90
13835;DHT22;6988;52.614;13.500;2022-09-09T18:08:29;19.20;99.90
13835;DHT22;6988;52.614;13.500;2022-09-09T18:13:21;19.00;99.90
13835;DHT22;6988;52.614;13.500;2022-09-09T18:18:14;18.80;99.90
13835;DHT22;6988;52.614;13.500;2022-09-09T18:23:06;18.70;99.90
13835;DHT22;6988;52.614;13.500;2022-09-09T18:27:58;18.50;99.90
13835;DHT22;6988;52.614;13.500;2022-09-09T18:32:50;18.40;99.90
13835;DHT22;6988;52.614;13.500;2022-09-09T18:37:45;18.50;99.90
13835;DHT22;6988;52.614;13.500;2022-09-09T18:42:37;18.20;99.90
13835;DHT22;6988;52.614;13.500;2022-09-09T18:47:29;18.00;99.90
13835;DHT22;6988;52.614;13.500;2022-09-09T18:52:21;17.80;99.90
13835;DHT22;6988;52.614;13.500;2022-09-09T18:57:14;17.80;99.90
13835;DHT22;6988;52.614;13.500;2022-09-09T19:02:05;17.70;99.90
13835;DHT22;6988;52.614;13.500;2022-09-09T19:06:58;17.70;99.90
13835;DHT22;6988;52.614;13.500;2022-09-09T19:11:49;17.60;99.90
13835;DHT22;6988;52.614;13.500;2022-09-09T19:16:44;17.50;99.90
13835;DHT22;6988;52.614;13.500;2022-09-09T19:21:39;17.40;99.90
13835;DHT22;6988;52.614;13.500;2022-09-09T19:26:34;17.30;99.90
13835;DHT22;6988;52.614;13.500;2022-09-09T19:31:29;17.30;99.90
13835;DHT22;6988;52.614;13.500;2022-09-09T19:36:24;17.30;99.90
13835;DHT22;6988;52.614;13.500;2022-09-09T19:41:19;17.30;99.90
13835;DHT22;6988;52.614;13.500;2022-09-09T19:46:14;17.10;99.90
13835;DHT22;6988;52.614;13.500;2022-09-09T19:51:09;17.10;99.90
13835;DHT22;6988;52.614;13.500;2022-09-09T19:56:04;17.00;99.90
13835;DHT22;6988;52.614;13.500;2022-09-09T20:01:04;16.80;99.90
13835;DHT22;6988;52.614;13.500;2022-09-09T20:05:57;16.60;99.90
13835;DHT22;6988;52.614;13.500;2022-09-09T20:10:50;16.60;99.90
13835;DHT22;6988;52.614;13.500;2022-09-09T20:15:44;16.60;99.90
13835;DHT22;6988;52.614;13.500;2022-09-09T20:20:39;16.60;99.90
13835;DHT22;6988;52.614;13.500;2022-09-09T20:25:34;16.60;99.90
13835;DHT22;6988;52.614;13.500;2022-09-09T20:30:26;16.60;99.90
13835;DHT22;6988;52.614;13.500;2022-09-09T20:35:19;16.70;99.90
13835;DHT22;6988;52.614;13.500;2022-09-09T20:40:11;16.70;99.90
13835;DHT22;6988;52.614;13.500;2022-09-09T20:45:04;16.70;99.90
13835;DHT22;6988;52.614;13.500;2022-09-09T20:49:56;16.80;99.90
13835;DHT22;6988;52.614;13.500;2022-09-09T20:54:50;16.70;99.90
13835;DHT22;6988;52.614;13.500;2022-09-09T20:59:43;16.70;99.90
13835;DHT22;6988;52.614;13.500;2022-09-09T21:04:37;16.70;99.90
13835;DHT22;6988;52.614;13.500;2022-09-09T21:09:29;16.60;99.90
13835;DHT22;6988;52.614;13.500;2022-09-09T21:14:23;16.50;99.90
13835;DHT22;6988;52.614;13.500;2022-09-09T21:19:16;16.40;99.90
13835;DHT22;6988;52.614;13.500;2022-09-09T21:24:08;16.20;99.90
13835;DHT22;6988;52.614;13.500;2022-09-09T21:29:00;16.20;99.90
13835;DHT22;6988;52.614;13.500;2022-09-09T21:33:53;16.20;99.90
13835;DHT22;6988;52.614;13.500;2022-09-09T21:38:44;16.10;99.90
13835;DHT22;6988;52.614;13.500;2022-09-09T21:43:36;16.10;99.90
13835;DHT22;6988;52.614;13.500;2022-09-09T22:04:34;15.50;99.90
13835;DHT22;6988;52.614;13.500;2022-09-09T22:09:26;15.40;99.90
13835;DHT22;6988;52.614;13.500;2022-09-09T22:14:18;15.30;99.90
13835;DHT22;6988;52.614;13.500;2022-09-09T22:19:10;15.30;99.90
13835;DHT22;6988;52.614;13.500;2022-09-09T22:24:04;15.40;99.90
13835;DHT22;6988;52.614;13.500;2022-09-09T22:28:56;15.30;99.90
13835;DHT22;6988;52.614;13.500;2022-09-09T22:33:48;15.30;99.90
13835;DHT22;6988;52.614;13.500;2022-09-09T22:38:41;15.30;99.90
13835;DHT22;6988;52.614;13.500;2022-09-09T22:43:34;15.30;99.90
13835;DHT22;6988;52.614;13.500;2022-09-09T22:48:26;15.30;99.90
13835;DHT22;6988;52.614;13.500;2022-09-09T22:53:18;15.30;99.90
13835;DHT22;6988;52.614;13.500;2022-09-09T22:58:10;15.30;99.90
13835;DHT22;6988;52.614;13.500;2022-09-09T23:03:03;15.30;99.90
13835;DHT22;6988;52.614;13.500;2022-09-09T23:07:55;15.30;99.90
13835;DHT22;6988;52.614;13.500;2022-09-09T23:12:47;15.30;99.90
13835;DHT22;6988;52.614;13.500;2022-09-09T23:17:39;15.20;99.90
13835;DHT22;6988;52.614;13.500;2022-09-09T23:22:32;15.10;99.90
13835;DHT22;6988;52.614;13.500;2022-09-09T23:27:25;15.10;99.90
13835;DHT22;6988;52.614;13.500;2022-09-09T23:32:19;15.00;99.90
13835;DHT22;6988;52.614;13.500;2022-09-09T23:37:11;15.00;99.90
13835;DHT22;6988;52.614;13.500;2022-09-09T23:42:05;14.90;99.90
13835;DHT22;6988;52.614;13.500;2022-09-09T23:46:57;14.90;99.90
13835;DHT22;6988;52.614;13.500;2022-09-09T23:51:48;14.80;99.90
13835;DHT22;6988;52.614;13.500;2022-09-09T23:56:40;14.70;99.90
